sensor_id;sensor_type;location;lat;lon;timestamp;pressure;altitude;pressure_sealevel;temperature;humidity
141;BME280;65;48.778;9.160;2023-02-04T00:00:50;99800.03;;;7.58;100.00
141;BME280;65;48.778;9.160;2023-02-04T00:03:16;99783.56;;;7.50;100.00
141;BME280;65;48.778;9.160;2023-02-04T00:05:41;99781.09;;;7.44;100.00
141;BME280;65;48.778;9.160;2023-02-04T00:08:07;99786.56;;;7.35;100.00
141;BME280;65;48.778;9.160;2023-02-04T00:10:33;99773.50;;;7.32;100.00
141;BME280;65;48.778;9.160;2023-02-04T00:12:58;99770.78;;;7.35;100.00
141;BME280;65;48.778;9.160;2023-02-04T00:15:24;99767.31;;;7.34;100.00
141;BME280;65;48.778;9.160;2023-02-04T00:17:49;99764.59;;;7.37;100.00
141;BME280;65;48.778;9.160;2023-02-04T00:20:15;99768.91;;;7.40;100.00
141;BME280;65;48.778;9.160;2023-02-04T00:22:40;99767.94;;;7.44;100.00
141;BME280;65;48.778;9.160;2023-02-04T00:25:06;99766.22;;;7.43;100.00
141;BME280;65;48.778;9.160;2023-02-04T00:27:32;99775.75;;;7.47;100.00
141;BME280;65;48.778;9.160;2023-02-04T00:29:57;99769.63;;;7.46;100.00
141;BME280;65;48.778;9.160;2023-02-04T00:32:23;99785.41;;;7.46;100.00
141;BME280;65;48.778;9.160;2023-02-04T00:34:49;99775.53;;;7.56;100.00
141;BME280;65;48.778;9.160;2023-02-04T00:37:14;99792.06;;;7.61;100.00
141;BME280;65;48.778;9.160;2023-02-04T00:39:39;99792.81;;;7.66;100.00
141;BME280;65;48.778;9.160;2023-02-04T00:42:05;99802.47;;;7.66;100.00
141;BME280;65;48.778;9.160;2023-02-04T00:44:31;99796.34;;;7.65;100.00
141;BME280;65;48.778;9.160;2023-02-04T00:46:56;99812.09;;;7.67;100.00
141;BME280;65;48.778;9.160;2023-02-04T00:49:22;99804.56;;;7.51;100.00
141;BME280;65;48.778;9.160;2023-02-04T00:51:47;99808.09;;;7.50;100.00
141;BME280;65;48.778;9.160;2023-02-04T00:54:13;99804.75;;;7.44;100.00
141;BME280;65;48.778;9.160;2023-02-04T00:56:40;99819.81;;;7.37;100.00
141;BME280;65;48.778;9.160;2023-02-04T00:59:06;99812.13;;;7.29;100.00
141;BME280;65;48.778;9.160;2023-02-04T01:01:32;99814.06;;;7.21;100.00
141;BME280;65;48.778;9.160;2023-02-04T01:03:58;99826.53;;;7.13;100.00
141;BME280;65;48.778;9.160;2023-02-04T01:06:24;99823.19;;;7.07;100.00
141;BME280;65;48.778;9.160;2023-02-04T01:08:49;99814.66;;;6.97;100.00
141;BME280;65;48.778;9.160;2023-02-04T01:11:15;99822.63;;;6.91;100.00
141;BME280;65;48.778;9.160;2023-02-04T01:13:41;99834.94;;;6.89;100.00
141;BME280;65;48.778;9.160;2023-02-04T01:16:06;99819.41;;;6.78;100.00
141;BME280;65;48.778;9.160;2023-02-04T01:18:31;99826.34;;;6.82;100.00
141;BME280;65;48.778;9.160;2023-02-04T01:20:57;99816.94;;;6.71;100.00
141;BME280;65;48.778;9.160;2023-02-04T01:23:22;99809.88;;;6.74;100.00
141;BME280;65;48.778;9.160;2023-02-04T01:25:47;99803.75;;;6.74;100.00
141;BME280;65;48.778;9.160;2023-02-04T01:28:13;99823.97;;;6.70;100.00
141;BME280;65;48.778;9.160;2023-02-04T01:30:38;99827.50;;;6.69;100.00
141;BME280;65;48.778;9.160;2023-02-04T01:33:04;99830.16;;;6.68;100.00
141;BME280;65;48.778;9.160;2023-02-04T01:35:29;99842.41;;;6.69;100.00
141;BME280;65;48.778;9.160;2023-02-04T01:37:54;99840.72;;;6.64;100.00
141;BME280;65;48.778;9.160;2023-02-04T01:40:20;99844.19;;;6.66;100.00
141;BME280;65;48.778;9.160;2023-02-04T01:42:45;99844.25;;;6.63;100.00
141;BME280;65;48.778;9.160;2023-02-04T01:45:11;99845.19;;;6.61;100.00
141;BME280;65;48.778;9.160;2023-02-04T01:47:37;99845.31;;;6.55;100.00
141;BME280;65;48.778;9.160;2023-02-04T01:50:03;99848.84;;;6.54;100.00
141;BME280;65;48.778;9.160;2023-02-04T01:52:35;99841.09;;;6.48;100.00
141;BME280;65;48.778;9.160;2023-02-04T01:55:02;99839.38;;;6.45;100.00
141;BME280;65;48.778;9.160;2023-02-04T01:57:28;99836.72;;;6.47;100.00
141;BME280;65;48.778;9.160;2023-02-04T01:59:54;99839.38;;;6.45;100.00
141;BME280;65;48.778;9.160;2023-02-04T02:02:39;99848.03;;;6.50;100.00
141;BME280;65;48.778;9.160;2023-02-04T02:05:45;99848.09;;;6.47;100.00
141;BME280;65;48.778;9.160;2023-02-04T02:08:12;99835.91;;;6.43;100.00
141;BME280;65;48.778;9.160;2023-02-04T02:10:41;99846.50;;;6.40;100.00
141;BME280;65;48.778;9.160;2023-02-04T02:13:10;99853.56;;;6.35;100.00
141;BME280;65;48.778;9.160;2023-02-04T02:15:35;99861.59;;;6.27;100.00
141;BME280;65;48.778;9.160;2023-02-04T02:18:01;99855.53;;;6.24;100.00
141;BME280;65;48.778;9.160;2023-02-04T02:20:26;99871.34;;;6.21;100.00
141;BME280;65;48.778;9.160;2023-02-04T02:25:50;99872.25;;;6.18;100.00
141;BME280;65;48.778;9.160;2023-02-04T02:28:19;99865.41;;;6.11;100.00
141;BME280;65;48.778;9.160;2023-02-04T02:30:46;99878.53;;;6.10;100.00
141;BME280;65;48.778;9.160;2023-02-04T02:33:14;99879.63;;;5.98;100.00
141;BME280;65;48.778;9.160;2023-02-04T02:35:41;99891.00;;;5.98;100.00
141;BME280;65;48.778;9.160;2023-02-04T02:38:10;99895.47;;;5.92;100.00
141;BME280;65;48.778;9.160;2023-02-04T02:40:38;99898.94;;;5.94;100.00
141;BME280;65;48.778;9.160;2023-02-04T02:43:04;99907.66;;;5.96;100.00
141;BME280;65;48.778;9.160;2023-02-04T02:45:31;99898.03;;;5.96;100.00
141;BME280;65;48.778;9.160;2023-02-04T02:48:00;99893.63;;;5.98;100.00
141;BME280;65;48.778;9.160;2023-02-04T02:50:28;99891.91;;;5.96;100.00
141;BME280;65;48.778;9.160;2023-02-04T02:52:54;99887.66;;;5.87;100.00
141;BME280;65;48.778;9.160;2023-02-04T02:55:23;99886.78;;;5.88;100.00
141;BME280;65;48.778;9.160;2023-02-04T02:57:50;99893.84;;;5.83;100.00
141;BME280;65;48.778;9.160;2023-02-04T03:00:25;99899.09;;;5.83;100.00
141;BME280;65;48.778;9.160;2023-02-04T03:03:07;99901.72;;;5.83;100.00
141;BME280;65;48.778;9.160;2023-02-04T03:05:42;99898.22;;;5.83;100.00
141;BME280;65;48.778;9.160;2023-02-04T03:08:10;99892.16;;;5.81;100.00
141;BME280;65;48.778;9.160;2023-02-04T03:10:38;99909.59;;;5.83;100.00
141;BME280;65;48.778;9.160;2023-02-04T03:13:03;99916.63;;;5.81;100.00
141;BME280;65;48.778;9.160;2023-02-04T03:15:30;99928.88;;;5.81;100.00
141;BME280;65;48.778;9.160;2023-02-04T03:18:04;99927.16;;;5.78;100.00
141;BME280;65;48.778;9.160;2023-02-04T03:20:31;99922.81;;;5.74;100.00
141;BME280;65;48.778;9.160;2023-02-04T03:22:57;99933.38;;;5.71;100.00
141;BME280;65;48.778;9.160;2023-02-04T03:25:23;99936.91;;;5.68;100.00
141;BME280;65;48.778;9.160;2023-02-04T03:27:54;99945.63;;;5.69;100.00
141;BME280;65;48.778;9.160;2023-02-04T03:30:22;99951.81;;;5.66;100.00
141;BME280;65;48.778;9.160;2023-02-04T03:32:48;99949.28;;;5.60;100.00
141;BME280;65;48.778;9.160;2023-02-04T03:35:13;99951.88;;;5.62;100.00
141;BME280;65;48.778;9.160;2023-02-04T03:37:39;99950.97;;;5.64;100.00
141;BME280;65;48.778;9.160;2023-02-04T03:40:04;99960.63;;;5.61;100.00
141;BME280;65;48.778;9.160;2023-02-04T03:42:30;99960.59;;;5.64;100.00
141;BME280;65;48.778;9.160;2023-02-04T03:44:55;99957.09;;;5.63;100.00
141;BME280;65;48.778;9.160;2023-02-04T03:47:21;99958.81;;;5.64;100.00
141;BME280;65;48.778;9.160;2023-02-04T03:49:46;99964.97;;;5.62;100.00
141;BME280;65;48.778;9.160;2023-02-04T03:52:11;99950.88;;;5.69;100.00
141;BME280;65;48.778;9.160;2023-02-04T03:54:37;99963.16;;;5.67;100.00
141;BME280;65;48.778;9.160;2023-02-04T03:57:02;99967.59;;;5.63;100.00
141;BME280;65;48.778;9.160;2023-02-04T03:59:27;99959.66;;;5.68;100.00
141;BME280;65;48.778;9.160;2023-02-04T04:01:53;99967.53;;;5.66;100.00
141;BME280;65;48.778;9.160;2023-02-04T04:04:18;99976.28;;;5.67;100.00
141;BME280;65;48.778;9.160;2023-02-04T04:06:44;99974.59;;;5.61;100.00
141;BME280;65;48.778;9.160;2023-02-04T04:09:09;99971.22;;;5.55;100.00
141;BME280;65;48.778;9.160;2023-02-04T04:11:34;99986.06;;;5.56;100.00
141;BME280;65;48.778;9.160;2023-02-04T04:14:00;99979.00;;;5.59;100.00
141;BME280;65;48.778;9.160;2023-02-04T04:16:26;99983.38;;;5.60;100.00
141;BME280;65;48.778;9.160;2023-02-04T04:18:52;99983.31;;;5.63;100.00
141;BME280;65;48.778;9.160;2023-02-04T04:21:18;99993.84;;;5.62;100.00
141;BME280;65;48.778;9.160;2023-02-04T04:23:43;99992.94;;;5.63;100.00
141;BME280;65;48.778;9.160;2023-02-04T04:26:08;99991.97;;;5.70;100.00
141;BME280;65;48.778;9.160;2023-02-04T04:28:34;99996.38;;;5.68;100.00
141;BME280;65;48.778;9.160;2023-02-04T04:30:59;100008.59;;;5.69;100.00
141;BME280;65;48.778;9.160;2023-02-04T04:33:24;100005.91;;;5.73;100.00
141;BME280;65;48.778;9.160;2023-02-04T04:35:50;100009.47;;;5.69;100.00
141;BME280;65;48.778;9.160;2023-02-04T04:38:15;100009.41;;;5.72;100.00
141;BME280;65;48.778;9.160;2023-02-04T04:40:41;100011.16;;;5.72;100.00
141;BME280;65;48.778;9.160;2023-02-04T04:43:06;100011.16;;;5.73;100.00
141;BME280;65;48.778;9.160;2023-02-04T04:45:31;100009.38;;;5.76;100.00
141;BME280;65;48.778;9.160;2023-02-04T04:47:57;100012.84;;;5.76;100.00
141;BME280;65;48.778;9.160;2023-02-04T04:50:22;100011.16;;;5.72;100.00
141;BME280;65;48.778;9.160;2023-02-04T04:52:47;100014.72;;;5.69;100.00
141;BME280;65;48.778;9.160;2023-02-04T04:55:13;100012.03;;;5.72;100.00
141;BME280;65;48.778;9.160;2023-02-04T04:57:39;100011.16;;;5.73;100.00
141;BME280;65;48.778;9.160;2023-02-04T05:00:06;100013.72;;;5.77;100.00
141;BME280;65;48.778;9.160;2023-02-04T05:02:32;100011.97;;;5.77;100.00
141;BME280;65;48.778;9.160;2023-02-04T05:04:57;100013.75;;;5.75;100.00
141;BME280;65;48.778;9.160;2023-02-04T05:07:22;100012.00;;;5.74;100.00
141;BME280;65;48.778;9.160;2023-02-04T05:09:48;100015.53;;;5.73;100.00
141;BME280;65;48.778;9.160;2023-02-04T05:12:13;100019.06;;;5.70;100.00
141;BME280;65;48.778;9.160;2023-02-04T05:14:38;100012.91;;;5.73;100.00
141;BME280;65;48.778;9.160;2023-02-04T05:17:04;100013.84;;;5.69;100.00
141;BME280;65;48.778;9.160;2023-02-04T05:19:29;100013.03;;;5.64;100.00
141;BME280;65;48.778;9.160;2023-02-04T05:21:55;100020.09;;;5.60;100.00
141;BME280;65;48.778;9.160;2023-02-04T05:24:21;100015.72;;;5.61;100.00
141;BME280;65;48.778;9.160;2023-02-04T05:26:47;100013.13;;;5.58;100.00
141;BME280;65;48.778;9.160;2023-02-04T05:29:12;100014.91;;;5.56;100.00
141;BME280;65;48.778;9.160;2023-02-04T05:31:37;100018.38;;;5.56;100.00
141;BME280;65;48.778;9.160;2023-02-04T05:34:03;100026.25;;;5.56;100.00
141;BME280;65;48.778;9.160;2023-02-04T05:36:28;100036.72;;;5.58;100.00
141;BME280;65;48.778;9.160;2023-02-04T05:38:53;100030.63;;;5.57;100.00
141;BME280;65;48.778;9.160;2023-02-04T05:41:19;100039.41;;;5.53;100.00
141;BME280;65;48.778;9.160;2023-02-04T05:43:44;100042.94;;;5.51;100.00
141;BME280;65;48.778;9.160;2023-02-04T05:46:10;100041.16;;;5.54;100.00
141;BME280;65;48.778;9.160;2023-02-04T05:48:35;100033.38;;;5.47;100.00
141;BME280;65;48.778;9.160;2023-02-04T05:51:01;100041.28;;;5.45;100.00
141;BME280;65;48.778;9.160;2023-02-04T05:53:26;100035.16;;;5.45;100.00
141;BME280;65;48.778;9.160;2023-02-04T05:55:51;100029.97;;;5.42;100.00
141;BME280;65;48.778;9.160;2023-02-04T05:58:17;100030.88;;;5.37;100.00
141;BME280;65;48.778;9.160;2023-02-04T06:00:42;100040.53;;;5.35;100.00
141;BME280;65;48.778;9.160;2023-02-04T06:03:07;100027.41;;;5.37;100.00
141;BME280;65;48.778;9.160;2023-02-04T06:05:33;100030.81;;;5.44;100.00
141;BME280;65;48.778;9.160;2023-02-04T06:07:58;100051.72;;;5.48;100.00
141;BME280;65;48.778;9.160;2023-02-04T06:10:24;100060.50;;;5.46;100.00
141;BME280;65;48.778;9.160;2023-02-04T06:12:49;100059.63;;;5.45;100.00
141;BME280;65;48.778;9.160;2023-02-04T06:15:14;100064.94;;;5.39;100.00
141;BME280;65;48.778;9.160;2023-02-04T06:17:40;100072.88;;;5.34;100.00
141;BME280;65;48.778;9.160;2023-02-04T06:20:06;100072.09;;;5.26;100.00
141;BME280;65;48.778;9.160;2023-02-04T06:22:32;100074.78;;;5.20;100.00
141;BME280;65;48.778;9.160;2023-02-04T06:24:57;100078.19;;;5.27;100.00
141;BME280;65;48.778;9.160;2023-02-04T06:27:23;100079.03;;;5.30;100.00
141;BME280;65;48.778;9.160;2023-02-04T06:29:52;100077.31;;;5.29;100.00
141;BME280;65;48.778;9.160;2023-02-04T06:32:18;100084.31;;;5.27;100.00
141;BME280;65;48.778;9.160;2023-02-04T06:34:44;100091.28;;;5.28;100.00
141;BME280;65;48.778;9.160;2023-02-04T06:37:09;100086.91;;;5.30;100.00
141;BME280;65;48.778;9.160;2023-02-04T06:39:35;100091.31;;;5.27;100.00
141;BME280;65;48.778;9.160;2023-02-04T06:42:00;100091.28;;;5.28;100.00
141;BME280;65;48.778;9.160;2023-02-04T06:44:26;100101.75;;;5.31;100.00
141;BME280;65;48.778;9.160;2023-02-04T06:46:51;100099.13;;;5.31;100.00
141;BME280;65;48.778;9.160;2023-02-04T06:49:16;100096.50;;;5.31;100.00
141;BME280;65;48.778;9.160;2023-02-04T06:51:42;100101.66;;;5.37;100.00
141;BME280;65;48.778;9.160;2023-02-04T06:54:07;100105.16;;;5.38;100.00
141;BME280;65;48.778;9.160;2023-02-04T06:56:33;100110.34;;;5.43;100.00
141;BME280;65;48.778;9.160;2023-02-04T06:58:58;100119.09;;;5.42;100.00
141;BME280;65;48.778;9.160;2023-02-04T07:01:23;100128.66;;;5.46;100.00
141;BME280;65;48.778;9.160;2023-02-04T07:03:49;100130.41;;;5.45;100.00
141;BME280;65;48.778;9.160;2023-02-04T07:06:14;100122.56;;;5.44;100.00
141;BME280;65;48.778;9.160;2023-02-04T07:08:40;100124.31;;;5.45;100.00
141;BME280;65;48.778;9.160;2023-02-04T07:11:05;100127.75;;;5.50;100.00
141;BME280;65;48.778;9.160;2023-02-04T07:13:31;100126.84;;;5.52;100.00
141;BME280;65;48.778;9.160;2023-02-04T07:15:56;100136.44;;;5.53;100.00
141;BME280;65;48.778;9.160;2023-02-04T07:18:21;100133.03;;;5.47;100.00
141;BME280;65;48.778;9.160;2023-02-04T07:20:47;100146.09;;;5.51;100.00
141;BME280;65;48.778;9.160;2023-02-04T07:23:12;100160.03;;;5.53;100.00
141;BME280;65;48.778;9.160;2023-02-04T07:25:38;100168.78;;;5.54;100.00
141;BME280;65;48.778;9.160;2023-02-04T07:28:04;100160.91;;;5.54;100.00
141;BME280;65;48.778;9.160;2023-02-04T07:30:33;100152.16;;;5.55;100.00
141;BME280;65;48.778;9.160;2023-02-04T07:32:58;100158.28;;;5.55;100.00
141;BME280;65;48.778;9.160;2023-02-04T07:35:23;100157.41;;;5.55;100.00
141;BME280;65;48.778;9.160;2023-02-04T07:37:49;100169.63;;;5.57;100.00
141;BME280;65;48.778;9.160;2023-02-04T07:40:14;100167.88;;;5.56;100.00
141;BME280;65;48.778;9.160;2023-02-04T07:42:40;100167.00;;;5.57;100.00
141;BME280;65;48.778;9.160;2023-02-04T07:45:06;100176.63;;;5.57;100.00
141;BME280;65;48.778;9.160;2023-02-04T07:47:32;100169.59;;;5.59;100.00
141;BME280;65;48.778;9.160;2023-02-04T07:49:57;100171.31;;;5.63;100.00
141;BME280;65;48.778;9.160;2023-02-04T07:52:23;100180.03;;;5.63;100.00
141;BME280;65;48.778;9.160;2023-02-04T07:54:49;100180.09;;;5.59;100.00
141;BME280;65;48.778;9.160;2023-02-04T07:57:33;100188.00;;;5.54;100.00
141;BME280;65;48.778;9.160;2023-02-04T07:59:59;100187.13;;;5.54;100.00
141;BME280;65;48.778;9.160;2023-02-04T08:02:24;100191.50;;;5.53;100.00
141;BME280;65;48.778;9.160;2023-02-04T08:04:50;100201.06;;;5.60;100.00
141;BME280;65;48.778;9.160;2023-02-04T08:07:15;100207.19;;;5.58;100.00
141;BME280;65;48.778;9.160;2023-02-04T08:09:41;100213.25;;;5.63;100.00
141;BME280;65;48.778;9.160;2023-02-04T08:12:06;100219.34;;;5.66;100.00
141;BME280;65;48.778;9.160;2023-02-04T08:14:32;100212.31;;;5.70;100.00
141;BME280;65;48.778;9.160;2023-02-04T08:16:57;100208.75;;;5.74;100.00
141;BME280;65;48.778;9.160;2023-02-04T08:19:23;100209.66;;;5.73;100.00
141;BME280;65;48.778;9.160;2023-02-04T08:21:49;100209.56;;;5.82;100.00
141;BME280;65;48.778;9.160;2023-02-04T08:24:15;100214.75;;;5.91;100.00
141;BME280;65;48.778;9.160;2023-02-04T08:26:41;100224.19;;;6.06;100.00
141;BME280;65;48.778;9.160;2023-02-04T08:29:07;100222.44;;;6.07;100.00
141;BME280;65;48.778;9.160;2023-02-04T08:31:34;100225.88;;;6.12;100.00
141;BME280;65;48.778;9.160;2023-02-04T08:34:01;100227.59;;;6.14;100.00
141;BME280;65;48.778;9.160;2023-02-04T08:36:26;100232.00;;;6.12;100.00
141;BME280;65;48.778;9.160;2023-02-04T08:38:52;100230.38;;;6.00;100.00
141;BME280;65;48.778;9.160;2023-02-04T08:41:17;100231.25;;;6.01;100.00
141;BME280;65;48.778;9.160;2023-02-04T08:43:43;100233.94;;;5.96;100.00
141;BME280;65;48.778;9.160;2023-02-04T08:46:08;100224.38;;;5.88;100.00
141;BME280;65;48.778;9.160;2023-02-04T08:48:34;100239.25;;;5.87;100.00
141;BME280;65;48.778;9.160;2023-02-04T08:50:59;100243.63;;;5.87;100.00
141;BME280;65;48.778;9.160;2023-02-04T08:53:25;100244.53;;;5.84;100.00
141;BME280;65;48.778;9.160;2023-02-04T08:55:50;100252.41;;;5.86;100.00
141;BME280;65;48.778;9.160;2023-02-04T08:58:16;100251.50;;;5.91;100.00
141;BME280;65;48.778;9.160;2023-02-04T09:00:41;100260.25;;;5.90;100.00
141;BME280;65;48.778;9.160;2023-02-04T09:03:07;100259.34;;;5.88;100.00
141;BME280;65;48.778;9.160;2023-02-04T09:05:32;100262.75;;;6.01;100.00
141;BME280;65;48.778;9.160;2023-02-04T09:07:58;100268.81;;;6.05;100.00
141;BME280;65;48.778;9.160;2023-02-04T09:10:23;100260.09;;;6.04;100.00
141;BME280;65;48.778;9.160;2023-02-04T09:12:49;100266.06;;;6.15;100.00
141;BME280;65;48.778;9.160;2023-02-04T09:15:21;100271.97;;;6.32;100.00
141;BME280;65;48.778;9.160;2023-02-04T09:17:47;100266.66;;;6.40;100.00
141;BME280;65;48.778;9.160;2023-02-04T09:20:13;100263.03;;;6.50;100.00
141;BME280;65;48.778;9.160;2023-02-04T09:22:39;100275.22;;;6.56;100.00
141;BME280;65;48.778;9.160;2023-02-04T09:25:04;100275.22;;;6.56;100.00
141;BME280;65;48.778;9.160;2023-02-04T09:27:30;100284.88;;;6.54;100.00
141;BME280;65;48.778;9.160;2023-02-04T09:29:56;100283.03;;;6.60;100.00
141;BME280;65;48.778;9.160;2023-02-04T09:32:21;100286.31;;;6.76;100.00
141;BME280;65;48.778;9.160;2023-02-04T09:34:48;100290.47;;;6.91;99.58
141;BME280;65;48.778;9.160;2023-02-04T09:37:13;100290.69;;;6.76;100.00
141;BME280;65;48.778;9.160;2023-02-04T09:39:39;100289.84;;;6.74;100.00
141;BME280;65;48.778;9.160;2023-02-04T09:42:04;100292.19;;;6.92;100.00
141;BME280;65;48.778;9.160;2023-02-04T09:44:30;100294.59;;;7.10;98.64
141;BME280;65;48.778;9.160;2023-02-04T09:46:58;100300.41;;;7.30;97.56
141;BME280;65;48.778;9.160;2023-02-04T09:49:25;100309.00;;;7.40;94.57
141;BME280;65;48.778;9.160;2023-02-04T09:51:58;100309.69;;;7.53;95.64
141;BME280;65;48.778;9.160;2023-02-04T09:54:23;100319.94;;;7.70;93.07
141;BME280;65;48.778;9.160;2023-02-04T09:56:51;100307.09;;;7.50;78.13
141;BME280;65;48.778;9.160;2023-02-04T09:59:18;100311.22;;;7.66;81.23
141;BME280;65;48.778;9.160;2023-02-04T10:02:46;100316.53;;;7.63;86.94
141;BME280;65;48.778;9.160;2023-02-04T10:04:40;100306.53;;;7.83;86.46
141;BME280;65;48.778;9.160;2023-02-04T10:07:10;100303.44;;;8.06;81.87
141;BME280;65;48.778;9.160;2023-02-04T10:09:37;100298.50;;;8.37;77.48
141;BME280;65;48.778;9.160;2023-02-04T10:12:03;100299.41;;;8.78;79.58
141;BME280;65;48.778;9.160;2023-02-04T10:14:28;100303.53;;;8.90;79.27
141;BME280;65;48.778;9.160;2023-02-04T10:16:58;100304.56;;;8.84;78.02
141;BME280;65;48.778;9.160;2023-02-04T10:19:27;100301.66;;;8.54;78.72
141;BME280;65;48.778;9.160;2023-02-04T10:21:54;100304.94;;;8.21;77.62
141;BME280;65;48.778;9.160;2023-02-04T10:24:22;100317.22;;;7.74;81.21
141;BME280;65;48.778;9.160;2023-02-04T10:26:53;100313.94;;;7.61;77.80
141;BME280;65;48.778;9.160;2023-02-04T10:29:23;100306.38;;;7.40;82.76
141;BME280;65;48.778;9.160;2023-02-04T10:31:51;100301.63;;;7.62;79.00
141;BME280;65;48.778;9.160;2023-02-04T10:34:22;100301.91;;;7.45;79.67
141;BME280;65;48.778;9.160;2023-02-04T10:36:53;100302.66;;;7.55;81.34
141;BME280;65;48.778;9.160;2023-02-04T10:39:24;100300.78;;;7.61;80.72
141;BME280;65;48.778;9.160;2023-02-04T10:41:54;100295.63;;;7.55;80.31
141;BME280;65;48.778;9.160;2023-02-04T10:44:32;100288.94;;;7.85;78.30
141;BME280;65;48.778;9.160;2023-02-04T10:50:10;100288.47;;;8.11;78.65
141;BME280;65;48.778;9.160;2023-02-04T10:52:42;100285.06;;;8.05;76.22
141;BME280;65;48.778;9.160;2023-02-04T10:55:12;100284.50;;;8.35;78.76
141;BME280;65;48.778;9.160;2023-02-04T10:57:41;100284.41;;;8.40;77.78
141;BME280;65;48.778;9.160;2023-02-04T11:02:44;100287.63;;;8.94;70.67
141;BME280;65;48.778;9.160;2023-02-04T11:05:18;100291.38;;;8.84;71.93
141;BME280;65;48.778;9.160;2023-02-04T11:07:45;100293.06;;;8.86;68.08
141;BME280;65;48.778;9.160;2023-02-04T11:10:17;100296.81;;;8.76;70.25
141;BME280;65;48.778;9.160;2023-02-04T11:12:46;100297.81;;;8.71;69.87
141;BME280;65;48.778;9.160;2023-02-04T11:15:45;100302.28;;;8.67;70.13
141;BME280;65;48.778;9.160;2023-02-04T11:20:48;100302.38;;;8.18;74.46
141;BME280;65;48.778;9.160;2023-02-04T11:26:04;100301.03;;;7.96;75.53
141;BME280;65;48.778;9.160;2023-02-04T11:33:45;100303.59;;;7.48;77.32
141;BME280;65;48.778;9.160;2023-02-04T11:36:14;100308.88;;;7.48;79.41
141;BME280;65;48.778;9.160;2023-02-04T11:38:45;100302.75;;;7.47;78.87
141;BME280;65;48.778;9.160;2023-02-04T11:41:29;100300.16;;;7.44;76.76
141;BME280;65;48.778;9.160;2023-02-04T11:43:56;100300.16;;;7.44;78.38
141;BME280;65;48.778;9.160;2023-02-04T11:46:22;100302.34;;;7.72;77.45
141;BME280;65;48.778;9.160;2023-02-04T11:48:54;100302.06;;;7.87;76.97
141;BME280;65;48.778;9.160;2023-02-04T11:51:30;100295.97;;;7.85;76.47
141;BME280;65;48.778;9.160;2023-02-04T11:53:56;100299.13;;;8.02;74.27
141;BME280;65;48.778;9.160;2023-02-04T11:56:22;100300.97;;;7.99;74.06
141;BME280;65;48.778;9.160;2023-02-04T11:58:49;100299.63;;;8.24;76.07
141;BME280;65;48.778;9.160;2023-02-04T12:01:19;100306.66;;;8.67;72.04
141;BME280;65;48.778;9.160;2023-02-04T12:03:50;100295.25;;;8.23;73.06
141;BME280;65;48.778;9.160;2023-02-04T12:06:22;100297.41;;;8.47;73.13
141;BME280;65;48.778;9.160;2023-02-04T12:08:48;100306.88;;;8.56;70.10
141;BME280;65;48.778;9.160;2023-02-04T12:11:27;100302.56;;;8.53;71.06
141;BME280;65;48.778;9.160;2023-02-04T12:14:05;100297.63;;;8.37;70.43
141;BME280;65;48.778;9.160;2023-02-04T12:16:40;100303.00;;;8.31;70.97
141;BME280;65;48.778;9.160;2023-02-04T12:19:05;100313.72;;;8.65;70.10
141;BME280;65;48.778;9.160;2023-02-04T12:21:31;100308.72;;;8.94;72.47
141;BME280;65;48.778;9.160;2023-02-04T12:23:57;100308.19;;;9.17;66.93
141;BME280;65;48.778;9.160;2023-02-04T12:26:22;100305.88;;;9.40;66.35
141;BME280;65;48.778;9.160;2023-02-04T12:28:48;100301.41;;;9.44;64.08
141;BME280;65;48.778;9.160;2023-02-04T12:31:13;100300.75;;;9.34;67.25
141;BME280;65;48.778;9.160;2023-02-04T12:33:39;100306.19;;;9.28;69.71
141;BME280;65;48.778;9.160;2023-02-04T12:36:04;100312.19;;;9.35;68.41
141;BME280;65;48.778;9.160;2023-02-04T12:38:30;100305.81;;;9.05;64.78
141;BME280;65;48.778;9.160;2023-02-04T12:40:55;100302.28;;;9.06;69.74
141;BME280;65;48.778;9.160;2023-02-04T12:43:21;100305.94;;;9.00;65.77
141;BME280;65;48.778;9.160;2023-02-04T12:45:46;100306.50;;;9.13;65.10
141;BME280;65;48.778;9.160;2023-02-04T12:48:14;100305.03;;;9.01;64.11
141;BME280;65;48.778;9.160;2023-02-04T12:50:39;100311.88;;;8.71;66.11
141;BME280;65;48.778;9.160;2023-02-04T12:53:05;100313.69;;;8.66;69.78
141;BME280;65;48.778;9.160;2023-02-04T12:55:30;100304.94;;;8.66;66.68
141;BME280;65;48.778;9.160;2023-02-04T12:57:56;100310.78;;;8.38;65.94
141;BME280;65;48.778;9.160;2023-02-04T13:00:22;100312.72;;;8.27;66.30
141;BME280;65;48.778;9.160;2023-02-04T13:02:47;100310.00;;;7.85;72.46
141;BME280;65;48.778;9.160;2023-02-04T13:05:14;100310.09;;;7.79;72.03
141;BME280;65;48.778;9.160;2023-02-04T13:07:40;100308.38;;;7.78;74.34
141;BME280;65;48.778;9.160;2023-02-04T13:10:10;100309.06;;;7.88;72.37
141;BME280;65;48.778;9.160;2023-02-04T13:12:35;100302.03;;;7.88;72.89
141;BME280;65;48.778;9.160;2023-02-04T13:15:01;100304.56;;;7.94;75.85
141;BME280;65;48.778;9.160;2023-02-04T13:17:26;100308.69;;;8.09;72.93
141;BME280;65;48.778;9.160;2023-02-04T13:19:52;100314.22;;;7.94;74.46
141;BME280;65;48.778;9.160;2023-02-04T13:22:17;100306.88;;;8.13;73.87
141;BME280;65;48.778;9.160;2023-02-04T13:24:42;100306.13;;;8.05;75.32
141;BME280;65;48.778;9.160;2023-02-04T13:27:08;100304.31;;;8.53;72.85
141;BME280;65;48.778;9.160;2023-02-04T13:29:33;100313.63;;;8.71;71.95
141;BME280;65;48.778;9.160;2023-02-04T13:31:59;100312.97;;;8.60;70.14
141;BME280;65;48.778;9.160;2023-02-04T13:34:24;100314.19;;;8.43;72.40
141;BME280;65;48.778;9.160;2023-02-04T13:36:49;100312.56;;;8.36;73.44
141;BME280;65;48.778;9.160;2023-02-04T13:39:15;100319.53;;;7.91;73.65
141;BME280;65;48.778;9.160;2023-02-04T13:41:40;100324.22;;;7.75;77.36
141;BME280;65;48.778;9.160;2023-02-04T13:44:06;100322.81;;;8.04;75.81
141;BME280;65;48.778;9.160;2023-02-04T13:46:32;100322.53;;;8.20;74.09
141;BME280;65;48.778;9.160;2023-02-04T13:48:57;100326.28;;;8.53;73.62
141;BME280;65;48.778;9.160;2023-02-04T13:51:23;100323.94;;;8.38;74.86
141;BME280;65;48.778;9.160;2023-02-04T13:53:48;100329.03;;;8.47;72.58
141;BME280;65;48.778;9.160;2023-02-04T13:56:14;100330.81;;;8.47;73.06
141;BME280;65;48.778;9.160;2023-02-04T13:58:39;100343.34;;;8.33;72.85
141;BME280;65;48.778;9.160;2023-02-04T14:01:11;100350.31;;;7.87;73.95
141;BME280;65;48.778;9.160;2023-02-04T14:03:37;100352.09;;;7.85;73.95
141;BME280;65;48.778;9.160;2023-02-04T14:06:03;100344.22;;;7.85;74.61
141;BME280;65;48.778;9.160;2023-02-04T14:08:29;100341.31;;;8.01;73.07